Time;durP1;ratioP1;P1;durP2;ratioP2;P2;SDS_P1;SDS_P2;PMS_P1;PMS_P2;Temp;Humidity;BMP_temperature;BMP_pressure;BME280_temperature;BME280_humidity;BME280_pressure;Samples;Min_cycle;Max_cycle;Signal;HPM_P1;HPM_P2
2022/12/20 00:02:01;;;;;;;;;;;19.70;61.80;;;;;;5093995;28;19915;-68
2022/12/20 00:04:27;;;;;;;;;;;19.90;63.10;;;;;;5094060;28;19935;-68
2022/12/20 00:06:54;;;;;;;;;;;20.20;61.20;;;;;;5092159;28;19959;-69
2022/12/20 00:09:21;;;;;;;;;;;20.30;59.10;;;;;;5092180;28;19922;-69
2022/12/20 00:11:47;;;;;;;;;;;20.20;60.00;;;;;;5091640;28;20058;-68
2022/12/20 00:14:14;;;;;;;;;;;20.20;60.00;;;;;;5086941;28;20255;-69
2022/12/20 00:16:40;;;;;;;;;;;20.20;59.90;;;;;;5089824;28;20374;-69
2022/12/20 00:19:07;;;;;;;;;;;20.10;61.20;;;;;;5084847;28;19909;-68
2022/12/20 00:21:34;;;;;;;;;;;19.70;60.00;;;;;;5089230;28;19916;-68
2022/12/20 00:24:00;;;;;;;;;;;19.70;61.30;;;;;;5088862;28;19916;-68
2022/12/20 00:26:28;;;;;;;;;;;19.60;60.60;;;;;;5087978;28;19962;-69
2022/12/20 00:28:55;;;;;;;;;;;19.60;61.50;;;;;;5091241;28;19912;-69
2022/12/20 00:31:22;;;;;;;;;;;19.60;60.60;;;;;;5076180;28;20001;-69
2022/12/20 00:33:49;;;;;;;;;;;19.60;60.90;;;;;;5065184;28;19934;-68
2022/12/20 00:36:16;;;;;;;;;;;19.50;62.10;;;;;;5091626;28;20431;-69
2022/12/20 00:38:49;;;;;;;;;;;19.50;61.70;;;;;;5056844;28;19956;-69
2022/12/20 00:41:17;;;;;;;;;;;19.60;62.00;;;;;;5062032;28;20006;-67
2022/12/20 00:43:43;;;;;;;;;;;19.50;60.40;;;;;;5057816;28;19908;-68
2022/12/20 00:46:10;;;;;;;;;;;19.40;61.70;;;;;;5085799;28;19975;-67
2022/12/20 00:48:37;;;;;;;;;;;19.30;63.40;;;;;;5090166;28;19912;-67
2022/12/20 00:51:05;;;;;;;;;;;19.30;63.20;;;;;;5084120;28;19924;-67
2022/12/20 00:53:32;;;;;;;;;;;19.10;63.00;;;;;;5110546;28;19951;-67
2022/12/20 00:55:58;;;;;;;;;;;19.10;63.10;;;;;;5107323;28;19923;-68
2022/12/20 00:58:25;;;;;;;;;;;19.10;63.80;;;;;;5114816;27;20002;-68
2022/12/20 01:00:52;;;;;;;;;;;19.00;62.60;;;;;;5111630;28;20384;-67
2022/12/20 01:03:18;;;;;;;;;;;19.00;64.50;;;;;;5094151;28;20010;-67
2022/12/20 01:05:54;;;;;;;;;;;19.00;64.40;;;;;;5113620;28;20034;-67
2022/12/20 01:08:21;;;;;;;;;;;19.10;64.90;;;;;;5087916;28;19916;-67
2022/12/20 01:10:57;;;;;;;;;;;19.00;63.90;;;;;;5113240;28;19930;-67
2022/12/20 01:13:24;;;;;;;;;;;18.90;63.90;;;;;;5112957;28;20259;-68
2022/12/20 01:15:51;;;;;;;;;;;18.80;63.70;;;;;;5113148;28;19908;-67
2022/12/20 01:18:17;;;;;;;;;;;18.90;63.80;;;;;;5113222;28;19912;-68
2022/12/20 01:20:44;;;;;;;;;;;19.00;62.00;;;;;;5110484;28;19912;-65
2022/12/20 01:23:10;;;;;;;;;;;19.00;63.60;;;;;;5108646;28;19915;-67
2022/12/20 01:25:37;;;;;;;;;;;19.20;64.20;;;;;;5110539;28;20014;-67
2022/12/20 01:28:04;;;;;;;;;;;19.30;61.90;;;;;;5112401;28;20350;-67
2022/12/20 01:30:30;;;;;;;;;;;19.20;61.90;;;;;;5093348;28;19959;-67
2022/12/20 01:32:57;;;;;;;;;;;19.30;64.40;;;;;;5107795;28;20281;-68
2022/12/20 01:35:23;;;;;;;;;;;19.30;60.70;;;;;;5107356;28;19965;-68
2022/12/20 01:37:50;;;;;;;;;;;19.40;62.40;;;;;;5110527;28;19907;-68
2022/12/20 01:40:17;;;;;;;;;;;19.60;61.40;;;;;;5111424;28;19908;-69
2022/12/20 01:42:43;;;;;;;;;;;19.70;60.00;;;;;;5108670;28;19919;-68
2022/12/20 01:45:12;;;;;;;;;;;19.80;60.20;;;;;;5110588;28;19919;-68
2022/12/20 01:47:39;;;;;;;;;;;19.90;60.60;;;;;;5088390;28;20013;-69
2022/12/20 01:50:06;;;;;;;;;;;20.00;60.70;;;;;;5111950;28;19912;-69
2022/12/20 01:52:34;;;;;;;;;;;19.90;57.60;;;;;;5093141;28;20331;-69
2022/12/20 01:55:10;;;;;;;;;;;19.90;57.30;;;;;;5108798;28;19912;-68
2022/12/20 01:57:50;;;;;;;;;;;19.90;57.10;;;;;;5110131;28;19911;-68
2022/12/20 02:00:17;;;;;;;;;;;20.00;57.70;;;;;;5108157;28;19972;-68
2022/12/20 02:02:45;;;;;;;;;;;20.10;56.50;;;;;;5090934;28;19908;-68
2022/12/20 02:05:13;;;;;;;;;;;20.10;58.80;;;;;;5106169;28;20018;-69
2022/12/20 02:07:40;;;;;;;;;;;20.10;57.90;;;;;;5110871;28;19916;-69
2022/12/20 02:10:07;;;;;;;;;;;20.10;56.80;;;;;;5091929;28;19912;-68
2022/12/20 02:12:41;;;;;;;;;;;20.00;59.10;;;;;;5111879;28;19908;-69
2022/12/20 02:15:30;;;;;;;;;;;20.10;55.10;;;;;;5090287;28;20301;-70
2022/12/20 02:18:06;;;;;;;;;;;19.80;56.70;;;;;;5108606;28;19919;-69
2022/12/20 02:20:37;;;;;;;;;;;19.80;57.80;;;;;;5076520;28;19919;-69
2022/12/20 02:23:30;;;;;;;;;;;19.90;54.30;;;;;;5112241;28;19911;-68
2022/12/20 02:26:06;;;;;;;;;;;19.90;54.30;;;;;;5091424;28;20011;-69
2022/12/20 02:28:50;;;;;;;;;;;20.10;55.70;;;;;;5108974;28;19951;-70
2022/12/20 02:31:18;;;;;;;;;;;20.00;54.10;;;;;;5088067;28;19965;-69
2022/12/20 02:33:46;;;;;;;;;;;20.00;55.10;;;;;;5093480;28;19912;-69
2022/12/20 02:36:17;;;;;;;;;;;20.10;58.30;;;;;;5094895;28;19969;-68
2022/12/20 02:38:43;;;;;;;;;;;20.20;54.60;;;;;;5096824;28;20276;-69
2022/12/20 02:41:15;;;;;;;;;;;20.10;55.10;;;;;;5081037;28;20002;-69
2022/12/20 02:46:27;;;;;;;;;;;20.20;56.40;;;;;;5095418;28;19977;-69
2022/12/20 02:48:54;;;;;;;;;;;20.30;57.50;;;;;;5096838;28;19965;-69
2022/12/20 02:51:21;;;;;;;;;;;20.30;55.90;;;;;;5106153;28;19919;-69
2022/12/20 02:53:48;;;;;;;;;;;20.20;54.00;;;;;;5095739;28;19959;-68
2022/12/20 02:56:34;;;;;;;;;;;20.10;52.30;;;;;;5109026;28;19908;-68
2022/12/20 02:59:04;;;;;;;;;;;20.10;55.70;;;;;;5112223;28;19994;-69
2022/12/20 03:01:35;;;;;;;;;;;20.10;52.80;;;;;;5096928;28;19915;-68
2022/12/20 03:04:02;;;;;;;;;;;20.10;57.00;;;;;;5095765;28;19927;-68
2022/12/20 03:06:29;;;;;;;;;;;20.10;55.10;;;;;;5111547;28;20349;-69
2022/12/20 03:08:56;;;;;;;;;;;20.00;56.70;;;;;;5093556;28;19923;-68
2022/12/20 03:11:22;;;;;;;;;;;19.90;55.70;;;;;;5086384;28;19919;-69
2022/12/20 03:13:49;;;;;;;;;;;20.00;57.50;;;;;;5114938;28;20387;-70
2022/12/20 03:16:16;;;;;;;;;;;20.10;57.40;;;;;;5097387;28;19912;-68
2022/12/20 03:18:44;;;;;;;;;;;20.10;55.10;;;;;;5096510;28;19930;-68
2022/12/20 03:21:11;;;;;;;;;;;20.10;57.90;;;;;;5110392;28;20274;-69
2022/12/20 03:23:38;;;;;;;;;;;20.00;57.10;;;;;;5112229;28;19927;-69
2022/12/20 03:26:04;;;;;;;;;;;20.00;54.90;;;;;;5087222;27;20369;-69
2022/12/20 03:28:31;;;;;;;;;;;20.00;56.40;;;;;;5108037;28;19919;-69
2022/12/20 03:30:58;;;;;;;;;;;20.20;57.30;;;;;;5105538;28;19908;-69
2022/12/20 03:33:24;;;;;;;;;;;20.10;56.90;;;;;;5105897;28;19966;-69
2022/12/20 03:35:51;;;;;;;;;;;20.20;54.80;;;;;;5109103;28;20301;-68
2022/12/20 03:38:17;;;;;;;;;;;20.20;56.80;;;;;;5115054;28;19911;-69
2022/12/20 03:40:44;;;;;;;;;;;20.10;57.20;;;;;;5115446;28;19915;-68
2022/12/20 03:57:45;;;;;;;;;;;20.00;57.40;;;;;;5102497;28;19942;-68
2022/12/20 04:00:12;;;;;;;;;;;20.00;57.30;;;;;;5114656;28;19916;-68
2022/12/20 04:02:39;;;;;;;;;;;20.00;57.20;;;;;;5093172;28;20350;-69
2022/12/20 04:05:05;;;;;;;;;;;19.90;55.90;;;;;;5111099;28;19996;-68
2022/12/20 04:07:32;;;;;;;;;;;19.90;54.90;;;;;;5114578;28;19915;-69
2022/12/20 04:09:59;;;;;;;;;;;19.90;55.90;;;;;;5114682;28;19961;-67
2022/12/20 04:12:25;;;;;;;;;;;20.00;52.70;;;;;;5114803;28;20349;-67
2022/12/20 04:14:52;;;;;;;;;;;20.00;54.70;;;;;;5114479;28;19908;-67
2022/12/20 04:17:18;;;;;;;;;;;20.10;55.30;;;;;;5114027;28;19953;-67
2022/12/20 04:19:45;;;;;;;;;;;20.20;54.90;;;;;;5114363;28;19934;-67
2022/12/20 04:22:11;;;;;;;;;;;20.10;54.80;;;;;;5114002;28;20384;-66
2022/12/20 04:24:38;;;;;;;;;;;19.90;51.30;;;;;;5114076;28;19908;-67
2022/12/20 04:27:05;;;;;;;;;;;19.90;53.00;;;;;;5112191;28;19916;-68
2022/12/20 04:29:31;;;;;;;;;;;19.80;55.80;;;;;;5114208;28;19993;-67
2022/12/20 04:31:58;;;;;;;;;;;19.80;55.30;;;;;;5114128;28;19908;-68
2022/12/20 04:34:24;;;;;;;;;;;19.70;54.50;;;;;;5113545;28;19915;-68
2022/12/20 04:36:51;;;;;;;;;;;19.70;55.50;;;;;;5113708;28;19955;-68
2022/12/20 04:39:18;;;;;;;;;;;19.80;56.30;;;;;;5113807;28;19926;-67
2022/12/20 04:41:44;;;;;;;;;;;19.80;56.60;;;;;;5113902;28;19908;-67
2022/12/20 04:44:11;;;;;;;;;;;19.70;56.40;;;;;;5113908;28;19908;-67
2022/12/20 04:46:38;;;;;;;;;;;19.60;56.80;;;;;;5091683;28;20014;-67
2022/12/20 04:49:04;;;;;;;;;;;19.50;55.30;;;;;;5104635;28;19908;-67
2022/12/20 04:51:31;;;;;;;;;;;19.60;53.80;;;;;;5113616;28;19915;-67
2022/12/20 04:53:57;;;;;;;;;;;19.70;56.40;;;;;;5113854;28;19915;-67
2022/12/20 04:56:26;;;;;;;;;;;19.80;58.40;;;;;;5092673;28;19942;-67
2022/12/20 04:58:53;;;;;;;;;;;19.80;57.60;;;;;;5089861;28;19912;-68
2022/12/20 05:01:20;;;;;;;;;;;19.80;56.70;;;;;;5091814;28;20393;-67
2022/12/20 05:03:47;;;;;;;;;;;19.70;57.60;;;;;;5091634;28;19912;-66
2022/12/20 05:06:13;;;;;;;;;;;19.70;57.70;;;;;;5090421;28;19924;-67
2022/12/20 05:08:40;;;;;;;;;;;19.70;58.40;;;;;;5091254;28;20344;-67
2022/12/20 05:11:07;;;;;;;;;;;19.70;58.40;;;;;;5109913;28;19957;-68
2022/12/20 05:13:33;;;;;;;;;;;19.70;58.60;;;;;;5113115;28;20331;-67
2022/12/20 05:16:00;;;;;;;;;;;19.80;58.40;;;;;;5091474;28;19919;-68
2022/12/20 05:18:27;;;;;;;;;;;19.80;58.50;;;;;;5079741;28;19970;-67
2022/12/20 05:26:27;;;;;;;;;;;20.00;58.20;;;;;;5113616;28;20285;-68
2022/12/20 05:28:54;;;;;;;;;;;19.90;57.60;;;;;;5100791;28;19908;-68
2022/12/20 05:31:21;;;;;;;;;;;19.80;57.20;;;;;;5111109;28;19912;-67
2022/12/20 05:33:47;;;;;;;;;;;19.80;59.10;;;;;;5091208;28;19935;-67
2022/12/20 05:36:14;;;;;;;;;;;19.70;61.10;;;;;;5098793;28;20006;-69
2022/12/20 05:57:52;;;;;;;;;;;19.30;62.50;;;;;;5081797;28;19934;-68
2022/12/20 06:00:19;;;;;;;;;;;19.10;62.90;;;;;;5059305;28;19927;-68
2022/12/20 06:02:45;;;;;;;;;;;19.10;63.40;;;;;;5050506;28;19932;-69
2022/12/20 06:05:12;;;;;;;;;;;19.10;62.90;;;;;;5067565;28;19916;-68
2022/12/20 06:07:39;;;;;;;;;;;19.20;62.70;;;;;;5067229;28;20413;-69
2022/12/20 06:10:06;;;;;;;;;;;19.20;63.20;;;;;;5060954;28;20380;-69
2022/12/20 06:12:33;;;;;;;;;;;19.30;63.20;;;;;;5063171;28;20042;-69
2022/12/20 06:15:00;;;;;;;;;;;19.30;62.00;;;;;;5066930;28;20294;-69
2022/12/20 06:17:27;;;;;;;;;;;19.30;61.60;;;;;;5067704;28;19912;-68
2022/12/20 06:19:53;;;;;;;;;;;19.30;60.40;;;;;;5064223;28;20020;-68
2022/12/20 06:22:20;;;;;;;;;;;19.30;60.70;;;;;;5066393;28;19922;-68
2022/12/20 06:24:46;;;;;;;;;;;19.20;60.90;;;;;;5064870;28;19912;-68
2022/12/20 06:27:13;;;;;;;;;;;19.20;60.80;;;;;;5064729;28;20386;-69
2022/12/20 06:29:40;;;;;;;;;;;19.20;61.50;;;;;;5064742;28;19927;-68
2022/12/20 06:32:06;;;;;;;;;;;19.20;60.10;;;;;;5063331;28;20019;-68
2022/12/20 06:34:33;;;;;;;;;;;19.20;60.20;;;;;;5066794;28;20007;-68
2022/12/20 06:36:59;;;;;;;;;;;19.20;59.80;;;;;;5064499;28;19924;-67
2022/12/20 06:39:26;;;;;;;;;;;19.20;59.70;;;;;;5063236;28;20366;-68
2022/12/20 06:41:53;;;;;;;;;;;19.30;57.70;;;;;;5067183;28;19908;-69
2022/12/20 06:44:19;;;;;;;;;;;19.20;59.00;;;;;;5063210;28;20382;-67
2022/12/20 06:46:46;;;;;;;;;;;19.20;59.50;;;;;;5067237;28;20017;-67
2022/12/20 06:49:12;;;;;;;;;;;19.20;59.70;;;;;;5065217;28;20396;-68
2022/12/20 06:51:39;;;;;;;;;;;19.10;58.50;;;;;;5062203;28;20053;-68
2022/12/20 06:54:06;;;;;;;;;;;19.10;58.10;;;;;;5066086;28;19916;-66
2022/12/20 06:56:32;;;;;;;;;;;19.10;60.00;;;;;;5067239;28;19916;-67
2022/12/20 06:58:59;;;;;;;;;;;19.20;59.90;;;;;;5071261;28;19970;-68
2022/12/20 07:01:25;;;;;;;;;;;19.10;59.10;;;;;;5072063;28;20347;-67
2022/12/20 07:03:52;;;;;;;;;;;19.10;58.50;;;;;;5053576;28;19923;-68
2022/12/20 07:06:19;;;;;;;;;;;19.10;58.70;;;;;;5081293;28;19924;-67
2022/12/20 07:08:45;;;;;;;;;;;19.10;57.60;;;;;;5076332;28;19939;-67
2022/12/20 07:11:12;;;;;;;;;;;19.00;57.70;;;;;;5061230;28;20397;-67
2022/12/20 07:13:38;;;;;;;;;;;19.00;57.30;;;;;;5063169;28;19916;-67
2022/12/20 07:16:05;;;;;;;;;;;19.00;57.60;;;;;;5082107;28;19948;-68
2022/12/20 07:18:34;;;;;;;;;;;19.00;57.20;;;;;;5062720;28;19912;-67
2022/12/20 07:21:01;;;;;;;;;;;19.00;57.70;;;;;;5059436;28;20358;-68
2022/12/20 07:23:27;;;;;;;;;;;19.00;57.50;;;;;;5088281;28;19918;-67
2022/12/20 07:25:57;;;;;;;;;;;19.00;57.50;;;;;;5093689;28;20082;-67
2022/12/20 08:32:00;;;;;;;;;;;18.80;62.80;;;;;;5100183;28;19973;-68
2022/12/20 08:34:26;;;;;;;;;;;18.80;63.20;;;;;;5109557;28;19924;-66
2022/12/20 08:36:53;;;;;;;;;;;18.70;62.80;;;;;;5092278;28;20801;-67
2022/12/20 08:39:20;;;;;;;;;;;18.70;63.70;;;;;;5111478;28;19907;-67
2022/12/20 08:41:46;;;;;;;;;;;18.70;64.30;;;;;;5111331;28;19995;-66
2022/12/20 08:44:13;;;;;;;;;;;18.70;64.50;;;;;;5100639;28;19920;-67
2022/12/20 08:46:39;;;;;;;;;;;18.60;65.30;;;;;;5109375;28;19923;-69
2022/12/20 08:49:06;;;;;;;;;;;18.60;65.00;;;;;;5110789;28;19918;-68
2022/12/20 08:51:33;;;;;;;;;;;18.60;65.00;;;;;;5110676;28;19916;-70
2022/12/20 08:54:01;;;;;;;;;;;18.50;65.10;;;;;;5106794;28;20262;-68
2022/12/20 08:56:28;;;;;;;;;;;18.60;65.10;;;;;;5091905;28;19922;-68
2022/12/20 08:58:54;;;;;;;;;;;18.50;64.60;;;;;;5089496;28;19916;-70
2022/12/20 09:01:21;;;;;;;;;;;18.50;64.50;;;;;;5103226;28;19922;-68
2022/12/20 09:03:48;;;;;;;;;;;18.40;64.50;;;;;;5096103;28;20369;-69
2022/12/20 09:06:16;;;;;;;;;;;18.40;64.40;;;;;;5089346;28;20039;-70
2022/12/20 09:08:43;;;;;;;;;;;18.40;64.50;;;;;;5098680;28;19922;-70
2022/12/20 09:11:13;;;;;;;;;;;18.30;64.20;;;;;;5111049;28;20006;-67
2022/12/20 09:13:40;;;;;;;;;;;18.30;64.50;;;;;;5107986;28;19958;-69
2022/12/20 09:16:07;;;;;;;;;;;18.40;64.20;;;;;;5100079;28;19912;-69
2022/12/20 09:18:34;;;;;;;;;;;18.30;64.20;;;;;;5110461;28;19912;-69
2022/12/20 09:21:04;;;;;;;;;;;18.30;64.50;;;;;;5110513;28;19911;-69
2022/12/20 09:23:31;;;;;;;;;;;18.30;64.50;;;;;;5089300;28;19912;-69
2022/12/20 09:26:02;;;;;;;;;;;18.30;65.60;;;;;;5110151;28;19916;-68
2022/12/20 09:28:29;;;;;;;;;;;18.30;65.80;;;;;;5110459;28;19911;-67
2022/12/20 09:31:03;;;;;;;;;;;18.30;65.40;;;;;;5110298;28;19908;-67
2022/12/20 09:33:30;;;;;;;;;;;18.30;65.80;;;;;;5103274;28;19942;-69
2022/12/20 09:35:56;;;;;;;;;;;18.30;65.40;;;;;;5108300;28;20294;-69
2022/12/20 09:38:23;;;;;;;;;;;18.30;65.60;;;;;;5110214;28;19912;-69
2022/12/20 09:40:51;;;;;;;;;;;18.30;65.60;;;;;;5088756;28;19980;-68
2022/12/20 09:43:17;;;;;;;;;;;18.20;65.40;;;;;;5109301;28;19908;-68
2022/12/20 09:45:44;;;;;;;;;;;18.20;65.90;;;;;;5088224;28;19955;-68
2022/12/20 09:48:18;;;;;;;;;;;18.20;66.00;;;;;;5090000;28;19912;-68
2022/12/20 09:51:01;;;;;;;;;;;18.20;66.30;;;;;;5088058;28;19908;-67
2022/12/20 09:53:28;;;;;;;;;;;18.20;66.20;;;;;;5088559;28;19926;-68
2022/12/20 09:55:59;;;;;;;;;;;18.20;66.30;;;;;;5099204;28;19919;-68
2022/12/20 09:58:25;;;;;;;;;;;18.20;66.20;;;;;;5081639;28;19918;-68
2022/12/20 10:00:56;;;;;;;;;;;18.20;66.60;;;;;;5077193;28;21319;-68
2022/12/20 10:03:31;;;;;;;;;;;18.20;67.00;;;;;;5086873;28;19961;-69
2022/12/20 10:06:27;;;;;;;;;;;18.10;66.60;;;;;;5090716;28;20022;-68
2022/12/20 10:09:01;;;;;;;;;;;18.20;66.40;;;;;;5087923;28;19912;-67
2022/12/20 10:30:03;;;;;;;;;;;18.10;66.60;;;;;;5083733;28;19981;-68
2022/12/20 10:32:38;;;;;;;;;;;18.10;66.70;;;;;;5070094;28;20402;-68
2022/12/20 10:35:10;;;;;;;;;;;18.00;66.70;;;;;;5050056;28;20322;-68
2022/12/20 10:37:37;;;;;;;;;;;18.10;66.50;;;;;;5069543;28;19912;-67
2022/12/20 10:40:04;;;;;;;;;;;18.10;66.40;;;;;;5038588;28;19912;-68
2022/12/20 10:42:40;;;;;;;;;;;18.00;66.10;;;;;;5061236;28;19921;-67
2022/12/20 10:45:24;;;;;;;;;;;18.00;66.70;;;;;;5070130;28;20335;-68
2022/12/20 10:47:51;;;;;;;;;;;18.00;66.30;;;;;;5072579;28;20599;-68
2022/12/20 10:50:18;;;;;;;;;;;18.00;66.40;;;;;;5061074;28;19930;-69
2022/12/20 10:52:45;;;;;;;;;;;18.00;66.60;;;;;;5067687;28;19908;-69
2022/12/20 10:55:44;;;;;;;;;;;18.00;66.60;;;;;;5048232;28;19916;-69
2022/12/20 10:58:11;;;;;;;;;;;18.00;66.90;;;;;;5026915;28;19908;-69
2022/12/20 11:00:37;;;;;;;;;;;18.00;66.80;;;;;;5072502;28;20003;-69
2022/12/20 11:03:11;;;;;;;;;;;18.00;66.40;;;;;;5072203;28;19960;-69
2022/12/20 11:05:38;;;;;;;;;;;18.00;66.30;;;;;;5071789;28;19924;-70
2022/12/20 11:08:15;;;;;;;;;;;17.90;66.40;;;;;;5054400;28;20061;-68
2022/12/20 11:10:42;;;;;;;;;;;18.00;66.80;;;;;;5055109;28;19920;-68
2022/12/20 11:13:18;;;;;;;;;;;17.90;66.80;;;;;;5071158;28;19974;-69
2022/12/20 11:15:48;;;;;;;;;;;17.90;66.50;;;;;;5046747;28;19924;-68
2022/12/20 11:18:28;;;;;;;;;;;17.90;66.90;;;;;;5060422;28;19919;-68
2022/12/20 11:21:17;;;;;;;;;;;17.90;66.60;;;;;;5060849;28;19916;-68
2022/12/20 11:23:56;;;;;;;;;;;17.90;66.50;;;;;;5070191;28;19931;-68
2022/12/20 11:26:41;;;;;;;;;;;17.90;66.20;;;;;;5066344;28;19962;-68
2022/12/20 11:29:25;;;;;;;;;;;18.00;66.50;;;;;;5076186;28;19991;-68
2022/12/20 11:31:58;;;;;;;;;;;18.00;66.40;;;;;;5087385;28;19942;-68
2022/12/20 11:34:39;;;;;;;;;;;18.00;66.70;;;;;;5072829;28;19909;-68
2022/12/20 11:37:15;;;;;;;;;;;18.00;66.60;;;;;;5063525;28;19919;-68
2022/12/20 11:39:42;;;;;;;;;;;17.90;66.90;;;;;;5073496;28;19913;-68
2022/12/20 11:42:17;;;;;;;;;;;17.90;66.60;;;;;;5085600;28;20352;-68
2022/12/20 11:44:50;;;;;;;;;;;17.90;66.80;;;;;;5094328;28;19937;-68
2022/12/20 11:47:35;;;;;;;;;;;18.00;67.80;;;;;;5093777;28;19968;-68
2022/12/20 11:50:11;;;;;;;;;;;17.90;67.70;;;;;;5084599;28;19912;-68
2022/12/20 11:52:40;;;;;;;;;;;18.00;68.80;;;;;;5094412;28;20251;-68
2022/12/20 11:55:14;;;;;;;;;;;18.00;69.70;;;;;;5094222;28;19943;-68
2022/12/20 11:58:04;;;;;;;;;;;18.00;69.90;;;;;;5075011;28;19915;-68
2022/12/20 12:00:34;;;;;;;;;;;18.00;70.10;;;;;;5090988;28;20355;-68
2022/12/20 12:03:04;;;;;;;;;;;17.90;71.10;;;;;;5094405;28;19907;-68
2022/12/20 12:05:34;;;;;;;;;;;17.90;71.50;;;;;;5084720;28;19913;-68
2022/12/20 12:08:02;;;;;;;;;;;17.90;71.80;;;;;;5091692;28;19912;-67
2022/12/20 12:10:39;;;;;;;;;;;17.90;72.40;;;;;;5074660;28;20019;-68
2022/12/20 12:13:11;;;;;;;;;;;17.90;72.80;;;;;;5070942;28;19908;-68
2022/12/20 12:16:01;;;;;;;;;;;18.00;72.90;;;;;;5054740;28;20397;-68
2022/12/20 12:18:29;;;;;;;;;;;17.90;73.00;;;;;;5069160;28;20281;-68
2022/12/20 12:20:58;;;;;;;;;;;17.90;73.00;;;;;;5066150;28;19995;-69
2022/12/20 12:23:34;;;;;;;;;;;17.90;73.40;;;;;;5081606;28;19939;-68
2022/12/20 12:26:01;;;;;;;;;;;17.90;73.40;;;;;;5067134;28;20397;-68
2022/12/20 12:28:28;;;;;;;;;;;17.90;72.90;;;;;;5072528;28;19912;-68
2022/12/20 12:30:59;;;;;;;;;;;17.90;73.10;;;;;;5089566;28;19926;-68
2022/12/20 12:33:27;;;;;;;;;;;17.90;73.20;;;;;;5075920;28;19908;-68
2022/12/20 12:35:57;;;;;;;;;;;17.90;72.80;;;;;;5092204;28;20003;-68
2022/12/20 12:38:46;;;;;;;;;;;17.90;72.70;;;;;;5093309;28;19962;-68
2022/12/20 12:41:31;;;;;;;;;;;17.90;73.20;;;;;;5078053;28;19927;-68
2022/12/20 12:44:16;;;;;;;;;;;17.90;73.30;;;;;;5093552;28;19909;-68
2022/12/20 12:46:43;;;;;;;;;;;17.90;73.30;;;;;;5091981;28;19924;-67
2022/12/20 12:49:20;;;;;;;;;;;17.90;73.00;;;;;;5063967;28;19962;-68
2022/12/20 12:51:50;;;;;;;;;;;17.90;72.90;;;;;;5091967;28;20374;-68
2022/12/20 12:54:18;;;;;;;;;;;17.90;72.70;;;;;;5063799;28;20271;-68
2022/12/20 12:56:45;;;;;;;;;;;17.90;73.30;;;;;;5063191;28;19913;-68
2022/12/20 12:59:12;;;;;;;;;;;17.90;75.90;;;;;;5073351;28;20362;-68
2022/12/20 13:01:52;;;;;;;;;;;17.70;77.70;;;;;;5075444;28;20011;-68
2022/12/20 13:04:19;;;;;;;;;;;17.50;79.90;;;;;;5093521;28;19919;-68
2022/12/20 13:06:48;;;;;;;;;;;17.30;81.70;;;;;;5090618;28;19916;-67
2022/12/20 13:09:35;;;;;;;;;;;17.30;82.80;;;;;;5093128;28;19908;-68
2022/12/20 13:12:21;;;;;;;;;;;17.20;83.20;;;;;;5093077;28;19908;-68
2022/12/20 13:14:48;;;;;;;;;;;17.20;83.50;;;;;;5080593;28;19913;-68
2022/12/20 13:17:18;;;;;;;;;;;17.20;83.60;;;;;;5091443;28;19908;-68
2022/12/20 13:19:50;;;;;;;;;;;17.20;83.70;;;;;;5092769;28;19912;-68
2022/12/20 13:22:17;;;;;;;;;;;17.20;83.40;;;;;;5092958;28;20265;-68
2022/12/20 13:24:51;;;;;;;;;;;17.20;83.50;;;;;;5091645;28;19916;-67
2022/12/20 13:27:18;;;;;;;;;;;17.20;83.60;;;;;;5063322;28;19990;-68
2022/12/20 13:29:53;;;;;;;;;;;17.20;83.40;;;;;;5072034;28;19982;-67
2022/12/20 13:32:38;;;;;;;;;;;17.20;83.20;;;;;;5054329;28;20402;-68
2022/12/20 13:37:49;;;;;;;;;;;17.10;82.90;;;;;;5095746;28;19916;-68
2022/12/20 13:40:19;;;;;;;;;;;17.10;82.90;;;;;;5100418;28;19922;-68
2022/12/20 13:42:45;;;;;;;;;;;17.10;83.10;;;;;;5112630;28;20246;-68
2022/12/20 13:45:13;;;;;;;;;;;17.10;83.10;;;;;;5094512;28;19915;-68
2022/12/20 13:47:41;;;;;;;;;;;17.10;83.20;;;;;;5094855;28;19916;-68
2022/12/20 13:50:21;;;;;;;;;;;17.10;83.10;;;;;;5112174;28;20370;-68
2022/12/20 13:52:48;;;;;;;;;;;17.10;82.90;;;;;;5094186;28;19911;-68
2022/12/20 13:55:27;;;;;;;;;;;17.10;82.70;;;;;;5084589;28;19916;-68
2022/12/20 13:57:54;;;;;;;;;;;17.20;82.50;;;;;;5112540;28;19950;-68
2022/12/20 14:00:27;;;;;;;;;;;17.10;82.50;;;;;;5112579;28;19908;-68
2022/12/20 14:02:54;;;;;;;;;;;17.10;81.20;;;;;;5094463;28;20370;-68
2022/12/20 14:05:20;;;;;;;;;;;17.20;81.80;;;;;;5112291;28;19907;-68
2022/12/20 14:08:13;;;;;;;;;;;17.20;81.90;;;;;;5111795;28;19911;-68
2022/12/20 14:10:39;;;;;;;;;;;17.20;81.60;;;;;;5105900;28;20321;-68
2022/12/20 14:13:22;;;;;;;;;;;17.10;81.70;;;;;;5107454;28;19912;-68
2022/12/20 14:15:49;;;;;;;;;;;17.10;81.60;;;;;;5081063;28;19916;-68
2022/12/20 14:18:16;;;;;;;;;;;17.10;81.40;;;;;;5089128;28;19916;-67
2022/12/20 14:20:43;;;;;;;;;;;17.00;81.00;;;;;;5106793;28;19915;-68
2022/12/20 14:23:11;;;;;;;;;;;17.00;81.20;;;;;;5094242;28;19908;-68
2022/12/20 14:25:39;;;;;;;;;;;17.00;81.10;;;;;;5086641;28;19932;-68
2022/12/20 14:28:09;;;;;;;;;;;17.00;81.10;;;;;;5094226;28;19908;-68
2022/12/20 14:30:40;;;;;;;;;;;17.00;81.10;;;;;;5093665;28;20007;-68
2022/12/20 14:33:16;;;;;;;;;;;17.00;80.90;;;;;;5093260;28;19953;-67
2022/12/20 14:35:47;;;;;;;;;;;17.00;80.90;;;;;;5111853;28;19915;-68
2022/12/20 14:38:19;;;;;;;;;;;17.00;80.70;;;;;;5093542;28;19928;-68
2022/12/20 14:40:46;;;;;;;;;;;16.90;80.80;;;;;;5091926;28;19919;-68
2022/12/20 14:43:16;;;;;;;;;;;16.90;80.80;;;;;;5112216;28;19923;-68
2022/12/20 14:45:42;;;;;;;;;;;16.80;80.00;;;;;;5094109;28;19916;-68
2022/12/20 14:48:14;;;;;;;;;;;16.90;80.10;;;;;;5093267;28;19916;-68
2022/12/20 14:50:40;;;;;;;;;;;16.80;80.20;;;;;;5093967;28;19908;-68
2022/12/20 14:53:21;;;;;;;;;;;16.90;80.10;;;;;;5093879;28;20004;-68
2022/12/20 14:55:47;;;;;;;;;;;16.90;80.10;;;;;;5094351;28;20399;-68
2022/12/20 14:58:31;;;;;;;;;;;16.90;80.00;;;;;;5094140;28;20000;-68
2022/12/20 15:01:01;;;;;;;;;;;16.90;80.10;;;;;;5076410;28;19912;-68
2022/12/20 15:03:28;;;;;;;;;;;16.90;80.40;;;;;;5091601;28;19918;-68
2022/12/20 15:05:58;;;;;;;;;;;16.80;80.10;;;;;;5093376;28;19919;-68
2022/12/20 15:08:34;;;;;;;;;;;16.80;80.20;;;;;;5092091;28;19908;-67
2022/12/20 15:11:09;;;;;;;;;;;16.80;80.10;;;;;;5101739;28;19961;-68
2022/12/20 15:13:37;;;;;;;;;;;16.80;80.30;;;;;;5106469;28;19927;-68
2022/12/20 15:16:04;;;;;;;;;;;16.80;80.30;;;;;;5111889;28;19915;-68
2022/12/20 15:18:31;;;;;;;;;;;16.70;80.40;;;;;;5111815;28;19908;-68
2022/12/20 15:21:04;;;;;;;;;;;16.70;80.60;;;;;;5112063;28;20002;-68
2022/12/20 15:23:31;;;;;;;;;;;16.70;80.60;;;;;;5092866;28;19911;-68
2022/12/20 15:25:58;;;;;;;;;;;16.70;80.70;;;;;;5089509;28;19930;-67
2022/12/20 15:28:25;;;;;;;;;;;16.70;80.70;;;;;;5111435;28;19908;-68
2022/12/20 15:30:52;;;;;;;;;;;16.80;80.70;;;;;;5090839;28;19907;-68
2022/12/20 15:33:22;;;;;;;;;;;16.70;80.70;;;;;;5110725;28;19934;-67
2022/12/20 15:35:50;;;;;;;;;;;16.70;80.80;;;;;;5092106;28;19922;-68
2022/12/20 15:38:18;;;;;;;;;;;16.70;80.90;;;;;;5111522;28;19920;-68
2022/12/20 15:40:47;;;;;;;;;;;16.70;81.00;;;;;;5109968;28;19966;-67
2022/12/20 15:43:18;;;;;;;;;;;16.70;81.20;;;;;;5093186;28;19987;-68
2022/12/20 15:45:45;;;;;;;;;;;16.70;81.20;;;;;;5114050;28;19973;-68
2022/12/20 15:48:16;;;;;;;;;;;16.70;81.30;;;;;;5096896;28;19908;-67
2022/12/20 15:50:58;;;;;;;;;;;16.70;81.30;;;;;;5095848;28;20022;-68
2022/12/20 15:53:26;;;;;;;;;;;16.70;81.40;;;;;;5096411;28;19966;-68
2022/12/20 15:55:53;;;;;;;;;;;16.70;81.50;;;;;;5096510;28;19931;-68
2022/12/20 15:58:20;;;;;;;;;;;16.70;81.40;;;;;;5114570;28;20389;-68
2022/12/20 16:00:46;;;;;;;;;;;16.70;81.60;;;;;;5114928;28;20010;-68
2022/12/20 16:03:18;;;;;;;;;;;16.70;81.60;;;;;;5114873;28;19965;-68
2022/12/20 16:05:45;;;;;;;;;;;16.70;81.50;;;;;;5095370;28;19947;-66
2022/12/20 16:08:12;;;;;;;;;;;16.70;81.60;;;;;;5115005;27;20286;-68
2022/12/20 16:10:38;;;;;;;;;;;16.80;81.80;;;;;;5093864;28;20306;-68
2022/12/20 16:13:06;;;;;;;;;;;16.80;81.60;;;;;;5093861;28;20007;-68
2022/12/20 16:15:33;;;;;;;;;;;16.70;81.50;;;;;;5114587;28;19912;-68
2022/12/20 16:18:00;;;;;;;;;;;16.80;81.50;;;;;;5113834;28;19912;-68
2022/12/20 16:20:28;;;;;;;;;;;16.80;81.70;;;;;;5103744;28;19919;-68
2022/12/20 16:44:01;;;;;;;;;;;16.70;81.20;;;;;;5088559;28;19928;-68
2022/12/20 16:46:28;;;;;;;;;;;16.70;80.90;;;;;;5075482;28;19991;-68
2022/12/20 16:48:56;;;;;;;;;;;16.70;80.90;;;;;;5072656;28;20023;-68
2022/12/20 16:51:24;;;;;;;;;;;16.70;81.30;;;;;;5066826;28;19916;-68
2022/12/20 16:53:51;;;;;;;;;;;16.70;81.30;;;;;;5072959;28;20281;-68
2022/12/20 16:56:18;;;;;;;;;;;16.70;81.20;;;;;;5072657;28;19939;-68
2022/12/20 16:58:45;;;;;;;;;;;16.70;81.10;;;;;;5074406;28;19927;-67